ROST FLYPLASS current weather conditions

sailwx.info

Wind from 150 at 25 knots

Air temperature 7.0° C
Visibility: greater than 5.4 NM
Dewpoint 3.0° C
Present weather: Light rain showers.

Last reported at 2014-Oct-24 06:50 UTC.
Time now 2014-Oct-24 10:24 UTC

Location: N 67°31' E 012°06'.
View on Google Maps.

See reports from other nearby stations

  
Tides and Currents Weather Stations Pressure Air Temp Water Temp Dewpoint Dewpoint Depression Visibility Wind Speed Wind Dir Waves Ship Positions
date/time (UTC)wind fromknots sea level pressurealtimeterstation pressurevisibilityair tempwater tempwave heightnotes
2014-Oct-24 06:50 150 25 5.4 7.0 Light rain showers.
2014-Oct-24 05:50 140 23 5.4 7.0 Light rain showers.
2014-Oct-24 05:20 150 22 5.4 7.0 Light rain showers.
2014-Oct-24 04:50 150 23 5.4 8.0
2014-Oct-23 17:50 160 31 5.4 6.0
2014-Oct-23 17:20 160 30 5.4 7.0
2014-Oct-23 16:50 160 31 gusting 41 5.4 7.0
2014-Oct-23 16:20 160 29 gusting 40 5.4 7.0
2014-Oct-23 15:50 150 27 5.4 7.0
2014-Oct-23 15:20 150 27 gusting 37 5.4 7.0
2014-Oct-23 14:20 150 32 gusting 42 5.4 7.0
2014-Oct-23 13:50 150 31 gusting 42 5.4 6.0
2014-Oct-23 12:50 150 29 gusting 39 5.4 6.0
2014-Oct-23 11:20 140 30 gusting 40 5.4 5.0 Light rain showers.
2014-Oct-23 10:50 150 31 gusting 43 5.4 5.0 Light rain showers.
2014-Oct-23 09:50 150 30 gusting 40 5.4 6.0 Light rain showers.
2014-Oct-23 08:50 150 29 gusting 40 5.4 6.0 Light rain showers.
2014-Oct-23 07:50 150 27 gusting 38 5.4 6.0
2014-Oct-23 07:20 150 31 5.4 6.0
2014-Oct-23 06:50 150 29 gusting 39 5.4 6.0
2014-Oct-23 06:20 140 27 gusting 37 5.4 6.0
2014-Oct-23 05:50 140 27 gusting 40 5.4 6.0
2014-Oct-23 05:30 140 27 gusting 39 5.4 6.0
2014-Oct-23 04:50 140 27 gusting 38 5.4 6.0
2014-Oct-22 17:20 170 31 5.4 5.0 Light rain showers.
2014-Oct-22 16:50 170 32 gusting 42 5.4 5.0 Showers in the vicinity.
2014-Oct-22 16:20 160 33 gusting 43 5.4 4.0 Showers in the vicinity.
2014-Oct-22 15:50 160 32 5.4 5.0 Showers in the vicinity.
2014-Oct-22 15:20 160 31 5.4 4.0 Showers in the vicinity.
2014-Oct-22 14:50 150 31 5.4 4.0 Showers in the vicinity.
2014-Oct-22 14:20 150 32 5.4 4.0 Light rain.
2014-Oct-22 13:50 150 31 5.4 3.0 Light rain.
2014-Oct-22 12:50 150 31 gusting 41 5.4 4.0 Light rain showers.
2014-Oct-22 12:20 150 29 gusting 39 5.4 4.0 Light rain showers.
2014-Oct-22 11:20 150 30 gusting 40 5.4 4.0 Light rain showers.
2014-Oct-22 10:50 150 32 gusting 42 5.4 5.0 Light rain showers.
2014-Oct-22 10:20 150 31 gusting 41 5.4 5.0